sensor_id;sensor_type;location;lat;lon;timestamp;P1;durP1;ratioP1;P2;durP2;ratioP2
27412;SDS011;14871;52.702;5.230;2023-06-19T00:02:20;14.00;;;11.23;;
27412;SDS011;14871;52.702;5.230;2023-06-19T00:04:46;13.68;;;11.23;;
27412;SDS011;14871;52.702;5.230;2023-06-19T00:07:12;12.43;;;11.18;;
27412;SDS011;14871;52.702;5.230;2023-06-19T00:09:38;12.88;;;11.13;;
27412;SDS011;14871;52.702;5.230;2023-06-19T00:12:03;12.05;;;10.85;;
27412;SDS011;14871;52.702;5.230;2023-06-19T00:14:29;13.32;;;11.40;;
27412;SDS011;14871;52.702;5.230;2023-06-19T00:16:55;13.10;;;11.55;;
27412;SDS011;14871;52.702;5.230;2023-06-19T00:19:21;14.10;;;11.85;;
27412;SDS011;14871;52.702;5.230;2023-06-19T00:21:47;12.93;;;11.73;;
27412;SDS011;14871;52.702;5.230;2023-06-19T00:24:13;13.13;;;11.93;;
27412;SDS011;14871;52.702;5.230;2023-06-19T00:26:39;14.18;;;12.27;;
27412;SDS011;14871;52.702;5.230;2023-06-19T00:29:05;13.57;;;12.10;;
27412;SDS011;14871;52.702;5.230;2023-06-19T00:31:31;12.68;;;11.40;;
27412;SDS011;14871;52.702;5.230;2023-06-19T00:33:57;12.98;;;11.68;;
27412;SDS011;14871;52.702;5.230;2023-06-19T00:36:23;13.20;;;11.80;;
27412;SDS011;14871;52.702;5.230;2023-06-19T00:38:51;14.77;;;12.02;;
27412;SDS011;14871;52.702;5.230;2023-06-19T00:41:18;14.50;;;12.02;;
27412;SDS011;14871;52.702;5.230;2023-06-19T00:43:45;14.15;;;11.68;;
27412;SDS011;14871;52.702;5.230;2023-06-19T00:46:10;13.93;;;12.13;;
27412;SDS011;14871;52.702;5.230;2023-06-19T00:48:37;13.50;;;12.23;;
27412;SDS011;14871;52.702;5.230;2023-06-19T00:51:04;13.95;;;12.50;;
27412;SDS011;14871;52.702;5.230;2023-06-19T00:53:30;14.88;;;11.95;;
27412;SDS011;14871;52.702;5.230;2023-06-19T00:55:57;13.98;;;11.80;;
27412;SDS011;14871;52.702;5.230;2023-06-19T00:58:24;15.30;;;11.95;;
27412;SDS011;14871;52.702;5.230;2023-06-19T01:00:50;13.77;;;12.38;;
27412;SDS011;14871;52.702;5.230;2023-06-19T01:03:16;13.35;;;12.05;;
27412;SDS011;14871;52.702;5.230;2023-06-19T01:05:42;13.82;;;12.25;;
27412;SDS011;14871;52.702;5.230;2023-06-19T01:08:27;13.05;;;11.75;;
27412;SDS011;14871;52.702;5.230;2023-06-19T01:11:06;15.60;;;12.55;;
27412;SDS011;14871;52.702;5.230;2023-06-19T01:13:47;15.35;;;11.85;;
27412;SDS011;14871;52.702;5.230;2023-06-19T01:16:16;13.25;;;11.98;;
27412;SDS011;14871;52.702;5.230;2023-06-19T01:18:43;12.77;;;11.48;;
27412;SDS011;14871;52.702;5.230;2023-06-19T01:21:12;14.13;;;11.65;;
27412;SDS011;14871;52.702;5.230;2023-06-19T01:23:40;14.38;;;10.93;;
27412;SDS011;14871;52.702;5.230;2023-06-19T01:26:06;12.85;;;11.27;;
27412;SDS011;14871;52.702;5.230;2023-06-19T01:28:33;12.00;;;10.82;;
27412;SDS011;14871;52.702;5.230;2023-06-19T01:31:08;13.50;;;11.20;;
27412;SDS011;14871;52.702;5.230;2023-06-19T01:33:58;12.60;;;11.07;;
27412;SDS011;14871;52.702;5.230;2023-06-19T01:36:26;11.32;;;10.23;;
27412;SDS011;14871;52.702;5.230;2023-06-19T01:38:53;11.45;;;10.23;;
27412;SDS011;14871;52.702;5.230;2023-06-19T01:41:22;11.65;;;10.43;;
27412;SDS011;14871;52.702;5.230;2023-06-19T01:43:49;10.45;;;9.35;;
27412;SDS011;14871;52.702;5.230;2023-06-19T01:46:16;10.63;;;8.88;;
27412;SDS011;14871;52.702;5.230;2023-06-19T01:48:41;9.35;;;7.78;;
27412;SDS011;14871;52.702;5.230;2023-06-19T01:51:07;8.98;;;7.53;;
27412;SDS011;14871;52.702;5.230;2023-06-19T01:53:33;7.70;;;6.63;;
27412;SDS011;14871;52.702;5.230;2023-06-19T01:55:59;8.15;;;6.68;;
27412;SDS011;14871;52.702;5.230;2023-06-19T01:58:25;8.93;;;5.45;;
27412;SDS011;14871;52.702;5.230;2023-06-19T02:00:51;5.65;;;5.15;;
27412;SDS011;14871;52.702;5.230;2023-06-19T02:03:17;5.65;;;4.55;;
27412;SDS011;14871;52.702;5.230;2023-06-19T02:05:42;7.07;;;4.30;;
27412;SDS011;14871;52.702;5.230;2023-06-19T02:08:08;5.50;;;4.55;;
27412;SDS011;14871;52.702;5.230;2023-06-19T02:10:34;7.20;;;3.80;;
27412;SDS011;14871;52.702;5.230;2023-06-19T02:12:59;5.50;;;3.97;;
27412;SDS011;14871;52.702;5.230;2023-06-19T02:15:25;9.18;;;4.60;;
27412;SDS011;14871;52.702;5.230;2023-06-19T02:17:51;6.03;;;3.97;;
27412;SDS011;14871;52.702;5.230;2023-06-19T02:20:20;5.65;;;4.13;;
27412;SDS011;14871;52.702;5.230;2023-06-19T02:22:46;5.22;;;4.47;;
27412;SDS011;14871;52.702;5.230;2023-06-19T02:25:12;4.57;;;3.72;;
27412;SDS011;14871;52.702;5.230;2023-06-19T02:27:37;3.53;;;3.22;;
27412;SDS011;14871;52.702;5.230;2023-06-19T02:30:03;4.30;;;3.00;;
27412;SDS011;14871;52.702;5.230;2023-06-19T02:32:30;6.03;;;2.80;;
27412;SDS011;14871;52.702;5.230;2023-06-19T02:34:56;4.07;;;2.88;;
27412;SDS011;14871;52.702;5.230;2023-06-19T02:37:22;4.80;;;2.42;;
27412;SDS011;14871;52.702;5.230;2023-06-19T02:39:48;5.25;;;2.88;;
27412;SDS011;14871;52.702;5.230;2023-06-19T02:42:14;3.33;;;2.50;;
27412;SDS011;14871;52.702;5.230;2023-06-19T02:44:39;4.97;;;2.70;;
27412;SDS011;14871;52.702;5.230;2023-06-19T02:47:05;3.38;;;2.45;;
27412;SDS011;14871;52.702;5.230;2023-06-19T02:49:31;3.05;;;2.08;;
27412;SDS011;14871;52.702;5.230;2023-06-19T02:51:57;3.47;;;2.33;;
27412;SDS011;14871;52.702;5.230;2023-06-19T02:54:22;4.55;;;2.88;;
27412;SDS011;14871;52.702;5.230;2023-06-19T02:56:48;4.03;;;2.70;;
27412;SDS011;14871;52.702;5.230;2023-06-19T02:59:14;5.28;;;3.30;;
27412;SDS011;14871;52.702;5.230;2023-06-19T03:01:39;5.43;;;3.35;;
27412;SDS011;14871;52.702;5.230;2023-06-19T03:04:05;6.70;;;3.70;;
27412;SDS011;14871;52.702;5.230;2023-06-19T03:06:31;6.00;;;5.28;;
27412;SDS011;14871;52.702;5.230;2023-06-19T03:09:05;6.45;;;5.57;;
27412;SDS011;14871;52.702;5.230;2023-06-19T03:11:37;9.10;;;5.78;;
27412;SDS011;14871;52.702;5.230;2023-06-19T03:14:04;8.48;;;7.00;;
27412;SDS011;14871;52.702;5.230;2023-06-19T03:16:32;13.13;;;7.15;;
27412;SDS011;14871;52.702;5.230;2023-06-19T03:18:58;8.82;;;7.93;;
27412;SDS011;14871;52.702;5.230;2023-06-19T03:21:24;9.82;;;8.80;;
27412;SDS011;14871;52.702;5.230;2023-06-19T03:23:49;13.65;;;9.30;;
27412;SDS011;14871;52.702;5.230;2023-06-19T03:26:15;10.40;;;9.23;;
27412;SDS011;14871;52.702;5.230;2023-06-19T03:28:41;12.15;;;10.65;;
27412;SDS011;14871;52.702;5.230;2023-06-19T03:31:06;13.38;;;11.57;;
27412;SDS011;14871;52.702;5.230;2023-06-19T03:33:32;12.85;;;11.52;;
27412;SDS011;14871;52.702;5.230;2023-06-19T03:35:57;12.73;;;11.30;;
27412;SDS011;14871;52.702;5.230;2023-06-19T03:38:23;12.70;;;10.45;;
27412;SDS011;14871;52.702;5.230;2023-06-19T03:40:49;12.55;;;11.15;;
27412;SDS011;14871;52.702;5.230;2023-06-19T03:43:14;13.13;;;10.55;;
27412;SDS011;14871;52.702;5.230;2023-06-19T03:45:40;12.25;;;10.95;;
27412;SDS011;14871;52.702;5.230;2023-06-19T03:48:06;11.05;;;9.73;;
27412;SDS011;14871;52.702;5.230;2023-06-19T03:50:32;12.10;;;10.68;;
27412;SDS011;14871;52.702;5.230;2023-06-19T03:52:57;11.43;;;10.43;;
27412;SDS011;14871;52.702;5.230;2023-06-19T03:55:23;12.63;;;11.23;;
27412;SDS011;14871;52.702;5.230;2023-06-19T03:57:49;14.52;;;12.90;;
27412;SDS011;14871;52.702;5.230;2023-06-19T04:00:15;13.25;;;11.80;;
27412;SDS011;14871;52.702;5.230;2023-06-19T04:02:43;19.15;;;15.93;;
27412;SDS011;14871;52.702;5.230;2023-06-19T04:05:11;18.67;;;16.77;;
27412;SDS011;14871;52.702;5.230;2023-06-19T04:07:37;20.92;;;18.63;;
27412;SDS011;14871;52.702;5.230;2023-06-19T04:10:02;22.73;;;19.25;;
27412;SDS011;14871;52.702;5.230;2023-06-19T04:12:28;31.92;;;24.27;;
27412;SDS011;14871;52.702;5.230;2023-06-19T04:14:54;30.88;;;26.63;;
27412;SDS011;14871;52.702;5.230;2023-06-19T04:17:19;36.78;;;29.95;;
27412;SDS011;14871;52.702;5.230;2023-06-19T04:19:45;33.60;;;29.25;;
27412;SDS011;14871;52.702;5.230;2023-06-19T04:22:11;34.20;;;30.70;;
27412;SDS011;14871;52.702;5.230;2023-06-19T04:24:37;35.20;;;31.45;;
27412;SDS011;14871;52.702;5.230;2023-06-19T04:27:02;36.17;;;32.25;;
27412;SDS011;14871;52.702;5.230;2023-06-19T04:29:28;40.22;;;32.83;;
27412;SDS011;14871;52.702;5.230;2023-06-19T04:31:57;37.05;;;32.90;;
27412;SDS011;14871;52.702;5.230;2023-06-19T04:34:28;37.38;;;33.45;;
27412;SDS011;14871;52.702;5.230;2023-06-19T04:36:53;36.50;;;32.58;;
27412;SDS011;14871;52.702;5.230;2023-06-19T04:39:23;38.60;;;34.45;;
27412;SDS011;14871;52.702;5.230;2023-06-19T04:41:49;37.75;;;33.88;;
27412;SDS011;14871;52.702;5.230;2023-06-19T04:44:14;43.13;;;38.63;;
27412;SDS011;14871;52.702;5.230;2023-06-19T04:46:40;41.97;;;37.67;;
27412;SDS011;14871;52.702;5.230;2023-06-19T04:49:09;44.80;;;38.05;;
27412;SDS011;14871;52.702;5.230;2023-06-19T04:51:35;45.78;;;36.55;;
27412;SDS011;14871;52.702;5.230;2023-06-19T04:54:01;43.67;;;37.67;;
27412;SDS011;14871;52.702;5.230;2023-06-19T04:56:27;46.85;;;37.75;;
27412;SDS011;14871;52.702;5.230;2023-06-19T04:58:53;43.50;;;38.67;;
27412;SDS011;14871;52.702;5.230;2023-06-19T05:01:25;39.05;;;30.38;;
27412;SDS011;14871;52.702;5.230;2023-06-19T05:03:55;38.17;;;29.35;;
27412;SDS011;14871;52.702;5.230;2023-06-19T05:06:24;44.45;;;33.53;;
27412;SDS011;14871;52.702;5.230;2023-06-19T05:08:50;48.42;;;35.53;;
27412;SDS011;14871;52.702;5.230;2023-06-19T05:11:16;48.75;;;32.67;;
27412;SDS011;14871;52.702;5.230;2023-06-19T05:13:42;51.08;;;34.97;;
27412;SDS011;14871;52.702;5.230;2023-06-19T05:16:07;53.50;;;36.67;;
27412;SDS011;14871;52.702;5.230;2023-06-19T05:18:33;60.33;;;38.00;;
27412;SDS011;14871;52.702;5.230;2023-06-19T05:20:59;59.08;;;39.85;;
27412;SDS011;14871;52.702;5.230;2023-06-19T05:23:24;59.17;;;40.28;;
27412;SDS011;14871;52.702;5.230;2023-06-19T05:25:50;69.90;;;42.83;;
27412;SDS011;14871;52.702;5.230;2023-06-19T05:28:16;64.05;;;41.80;;
27412;SDS011;14871;52.702;5.230;2023-06-19T05:30:41;61.72;;;40.28;;
27412;SDS011;14871;52.702;5.230;2023-06-19T05:33:07;62.92;;;42.42;;
27412;SDS011;14871;52.702;5.230;2023-06-19T05:35:32;67.70;;;43.22;;
27412;SDS011;14871;52.702;5.230;2023-06-19T05:37:58;60.17;;;40.13;;
27412;SDS011;14871;52.702;5.230;2023-06-19T05:40:24;58.42;;;38.05;;
27412;SDS011;14871;52.702;5.230;2023-06-19T05:42:49;55.22;;;36.28;;
27412;SDS011;14871;52.702;5.230;2023-06-19T05:45:15;58.25;;;35.95;;
27412;SDS011;14871;52.702;5.230;2023-06-19T05:47:41;52.78;;;36.97;;
27412;SDS011;14871;52.702;5.230;2023-06-19T05:50:07;45.72;;;33.72;;
27412;SDS011;14871;52.702;5.230;2023-06-19T05:52:33;40.53;;;28.25;;
27412;SDS011;14871;52.702;5.230;2023-06-19T05:54:58;36.70;;;27.38;;
27412;SDS011;14871;52.702;5.230;2023-06-19T05:57:24;42.85;;;30.08;;
27412;SDS011;14871;52.702;5.230;2023-06-19T05:59:50;39.28;;;27.42;;
27412;SDS011;14871;52.702;5.230;2023-06-19T06:02:17;39.33;;;27.20;;
27412;SDS011;14871;52.702;5.230;2023-06-19T06:04:43;43.83;;;30.50;;
27412;SDS011;14871;52.702;5.230;2023-06-19T06:07:09;38.85;;;26.48;;
27412;SDS011;14871;52.702;5.230;2023-06-19T06:09:35;41.65;;;29.30;;
27412;SDS011;14871;52.702;5.230;2023-06-19T06:12:00;35.10;;;25.98;;
27412;SDS011;14871;52.702;5.230;2023-06-19T06:14:26;34.45;;;25.75;;
27412;SDS011;14871;52.702;5.230;2023-06-19T06:16:52;33.97;;;24.85;;
27412;SDS011;14871;52.702;5.230;2023-06-19T06:19:21;32.95;;;24.20;;
27412;SDS011;14871;52.702;5.230;2023-06-19T06:21:51;29.17;;;21.30;;
27412;SDS011;14871;52.702;5.230;2023-06-19T06:24:16;27.88;;;20.48;;
27412;SDS011;14871;52.702;5.230;2023-06-19T06:26:42;28.20;;;21.45;;
27412;SDS011;14871;52.702;5.230;2023-06-19T06:29:08;27.83;;;20.73;;
27412;SDS011;14871;52.702;5.230;2023-06-19T06:31:37;27.08;;;19.95;;
27412;SDS011;14871;52.702;5.230;2023-06-19T06:34:03;26.60;;;19.65;;
27412;SDS011;14871;52.702;5.230;2023-06-19T06:36:29;27.67;;;19.27;;
27412;SDS011;14871;52.702;5.230;2023-06-19T06:38:55;24.92;;;19.63;;
27412;SDS011;14871;52.702;5.230;2023-06-19T06:41:20;23.35;;;17.60;;
27412;SDS011;14871;52.702;5.230;2023-06-19T06:43:46;22.63;;;17.02;;
27412;SDS011;14871;52.702;5.230;2023-06-19T06:46:12;20.45;;;14.95;;
27412;SDS011;14871;52.702;5.230;2023-06-19T06:48:37;20.83;;;13.52;;
27412;SDS011;14871;52.702;5.230;2023-06-19T06:51:03;19.73;;;13.52;;
27412;SDS011;14871;52.702;5.230;2023-06-19T06:53:29;19.90;;;14.60;;
27412;SDS011;14871;52.702;5.230;2023-06-19T06:55:57;22.77;;;14.98;;
27412;SDS011;14871;52.702;5.230;2023-06-19T06:58:23;22.85;;;15.43;;
27412;SDS011;14871;52.702;5.230;2023-06-19T07:00:48;18.77;;;14.63;;
27412;SDS011;14871;52.702;5.230;2023-06-19T07:03:16;20.17;;;15.27;;
27412;SDS011;14871;52.702;5.230;2023-06-19T07:05:42;18.95;;;16.15;;
27412;SDS011;14871;52.702;5.230;2023-06-19T07:08:08;17.55;;;14.35;;
27412;SDS011;14871;52.702;5.230;2023-06-19T07:10:34;21.85;;;16.02;;
27412;SDS011;14871;52.702;5.230;2023-06-19T07:12:59;27.48;;;17.20;;
27412;SDS011;14871;52.702;5.230;2023-06-19T07:15:25;22.15;;;15.82;;
27412;SDS011;14871;52.702;5.230;2023-06-19T07:17:51;24.15;;;18.25;;
27412;SDS011;14871;52.702;5.230;2023-06-19T07:20:17;22.60;;;17.05;;
27412;SDS011;14871;52.702;5.230;2023-06-19T07:22:43;22.55;;;17.23;;
27412;SDS011;14871;52.702;5.230;2023-06-19T07:25:10;22.25;;;17.00;;
27412;SDS011;14871;52.702;5.230;2023-06-19T07:27:36;23.02;;;17.90;;
27412;SDS011;14871;52.702;5.230;2023-06-19T07:30:02;23.65;;;17.80;;
27412;SDS011;14871;52.702;5.230;2023-06-19T07:32:28;26.02;;;18.27;;
27412;SDS011;14871;52.702;5.230;2023-06-19T07:34:54;26.98;;;18.98;;
27412;SDS011;14871;52.702;5.230;2023-06-19T07:37:20;24.30;;;17.77;;
27412;SDS011;14871;52.702;5.230;2023-06-19T07:39:46;23.98;;;18.52;;
27412;SDS011;14871;52.702;5.230;2023-06-19T07:42:16;27.63;;;20.23;;
27412;SDS011;14871;52.702;5.230;2023-06-19T07:44:43;20.60;;;14.88;;
27412;SDS011;14871;52.702;5.230;2023-06-19T07:47:10;25.95;;;18.67;;
27412;SDS011;14871;52.702;5.230;2023-06-19T07:49:36;21.70;;;15.70;;
27412;SDS011;14871;52.702;5.230;2023-06-19T07:52:04;23.83;;;18.23;;
27412;SDS011;14871;52.702;5.230;2023-06-19T07:54:30;22.45;;;18.15;;
27412;SDS011;14871;52.702;5.230;2023-06-19T07:56:58;20.63;;;17.30;;
27412;SDS011;14871;52.702;5.230;2023-06-19T07:59:24;22.52;;;17.63;;
27412;SDS011;14871;52.702;5.230;2023-06-19T08:01:49;21.88;;;18.95;;
27412;SDS011;14871;52.702;5.230;2023-06-19T08:04:15;21.77;;;18.13;;
27412;SDS011;14871;52.702;5.230;2023-06-19T08:06:41;23.88;;;18.40;;
27412;SDS011;14871;52.702;5.230;2023-06-19T08:09:06;24.00;;;19.85;;
27412;SDS011;14871;52.702;5.230;2023-06-19T08:11:32;27.33;;;20.05;;
27412;SDS011;14871;52.702;5.230;2023-06-19T08:13:58;24.90;;;19.35;;
27412;SDS011;14871;52.702;5.230;2023-06-19T08:16:24;24.42;;;19.05;;
27412;SDS011;14871;52.702;5.230;2023-06-19T08:18:51;22.98;;;19.20;;
27412;SDS011;14871;52.702;5.230;2023-06-19T08:21:17;23.50;;;18.27;;
27412;SDS011;14871;52.702;5.230;2023-06-19T08:23:43;25.58;;;18.17;;
27412;SDS011;14871;52.702;5.230;2023-06-19T08:26:09;25.92;;;19.10;;
27412;SDS011;14871;52.702;5.230;2023-06-19T08:28:35;26.48;;;21.20;;
27412;SDS011;14871;52.702;5.230;2023-06-19T08:31:02;27.83;;;20.92;;
27412;SDS011;14871;52.702;5.230;2023-06-19T08:33:28;24.55;;;19.15;;
27412;SDS011;14871;52.702;5.230;2023-06-19T08:35:53;26.95;;;20.95;;
27412;SDS011;14871;52.702;5.230;2023-06-19T08:38:19;26.35;;;22.27;;
27412;SDS011;14871;52.702;5.230;2023-06-19T08:40:45;25.13;;;20.77;;
27412;SDS011;14871;52.702;5.230;2023-06-19T08:43:11;28.38;;;22.17;;
27412;SDS011;14871;52.702;5.230;2023-06-19T08:45:36;28.30;;;21.48;;
27412;SDS011;14871;52.702;5.230;2023-06-19T08:48:03;28.23;;;22.25;;
27412;SDS011;14871;52.702;5.230;2023-06-19T08:50:30;27.92;;;22.27;;
27412;SDS011;14871;52.702;5.230;2023-06-19T08:52:56;28.20;;;20.67;;
27412;SDS011;14871;52.702;5.230;2023-06-19T08:55:22;27.75;;;20.50;;
27412;SDS011;14871;52.702;5.230;2023-06-19T08:57:49;27.50;;;22.17;;
27412;SDS011;14871;52.702;5.230;2023-06-19T09:00:28;27.50;;;22.15;;
27412;SDS011;14871;52.702;5.230;2023-06-19T09:03:02;29.92;;;22.15;;
27412;SDS011;14871;52.702;5.230;2023-06-19T09:05:28;29.88;;;20.75;;
27412;SDS011;14871;52.702;5.230;2023-06-19T09:07:58;27.02;;;21.65;;
27412;SDS011;14871;52.702;5.230;2023-06-19T09:10:26;29.80;;;20.10;;
27412;SDS011;14871;52.702;5.230;2023-06-19T09:13:04;27.38;;;19.23;;
27412;SDS011;14871;52.702;5.230;2023-06-19T09:15:31;28.63;;;20.23;;
27412;SDS011;14871;52.702;5.230;2023-06-19T09:18:05;26.58;;;19.15;;
27412;SDS011;14871;52.702;5.230;2023-06-19T09:20:38;29.77;;;23.58;;
27412;SDS011;14871;52.702;5.230;2023-06-19T09:23:13;34.65;;;23.98;;
27412;SDS011;14871;52.702;5.230;2023-06-19T09:25:52;30.38;;;24.67;;
27412;SDS011;14871;52.702;5.230;2023-06-19T09:28:20;36.08;;;26.73;;
27412;SDS011;14871;52.702;5.230;2023-06-19T09:30:54;34.83;;;26.35;;
27412;SDS011;14871;52.702;5.230;2023-06-19T09:33:25;33.72;;;27.60;;
27412;SDS011;14871;52.702;5.230;2023-06-19T09:35:52;34.90;;;26.52;;
27412;SDS011;14871;52.702;5.230;2023-06-19T09:38:21;26.60;;;21.42;;
27412;SDS011;14871;52.702;5.230;2023-06-19T09:40:49;27.88;;;22.58;;
27412;SDS011;14871;52.702;5.230;2023-06-19T09:43:18;24.63;;;20.25;;
27412;SDS011;14871;52.702;5.230;2023-06-19T09:45:48;26.48;;;19.60;;
27412;SDS011;14871;52.702;5.230;2023-06-19T09:48:20;30.60;;;22.00;;
27412;SDS011;14871;52.702;5.230;2023-06-19T09:50:51;28.42;;;21.20;;
27412;SDS011;14871;52.702;5.230;2023-06-19T09:53:24;31.60;;;21.25;;
27412;SDS011;14871;52.702;5.230;2023-06-19T09:55:50;32.67;;;20.30;;
27412;SDS011;14871;52.702;5.230;2023-06-19T09:58:17;25.25;;;18.92;;
27412;SDS011;14871;52.702;5.230;2023-06-19T10:00:45;22.70;;;17.92;;
27412;SDS011;14871;52.702;5.230;2023-06-19T10:03:12;22.90;;;20.15;;
27412;SDS011;14871;52.702;5.230;2023-06-19T10:05:39;26.15;;;21.05;;
27412;SDS011;14871;52.702;5.230;2023-06-19T10:08:05;26.15;;;19.20;;
27412;SDS011;14871;52.702;5.230;2023-06-19T10:10:33;23.05;;;17.95;;
27412;SDS011;14871;52.702;5.230;2023-06-19T10:12:59;22.75;;;18.70;;
27412;SDS011;14871;52.702;5.230;2023-06-19T10:15:39;22.40;;;18.25;;
27412;SDS011;14871;52.702;5.230;2023-06-19T10:18:06;21.25;;;18.20;;
27412;SDS011;14871;52.702;5.230;2023-06-19T10:20:33;20.65;;;16.83;;
27412;SDS011;14871;52.702;5.230;2023-06-19T10:25:37;18.15;;;14.52;;
27412;SDS011;14871;52.702;5.230;2023-06-19T10:28:15;17.25;;;14.50;;
27412;SDS011;14871;52.702;5.230;2023-06-19T10:30:51;19.42;;;15.52;;
27412;SDS011;14871;52.702;5.230;2023-06-19T10:33:19;18.67;;;14.27;;
27412;SDS011;14871;52.702;5.230;2023-06-19T10:35:45;19.00;;;14.60;;
27412;SDS011;14871;52.702;5.230;2023-06-19T10:38:14;19.17;;;14.45;;
27412;SDS011;14871;52.702;5.230;2023-06-19T10:40:40;21.63;;;15.35;;
27412;SDS011;14871;52.702;5.230;2023-06-19T10:43:06;20.55;;;14.07;;
27412;SDS011;14871;52.702;5.230;2023-06-19T10:45:32;18.63;;;14.63;;
27412;SDS011;14871;52.702;5.230;2023-06-19T10:47:57;21.80;;;14.52;;
27412;SDS011;14871;52.702;5.230;2023-06-19T10:50:26;21.30;;;14.77;;
27412;SDS011;14871;52.702;5.230;2023-06-19T10:52:52;17.70;;;14.15;;
27412;SDS011;14871;52.702;5.230;2023-06-19T10:55:20;14.82;;;13.25;;
27412;SDS011;14871;52.702;5.230;2023-06-19T10:57:46;19.45;;;15.27;;
27412;SDS011;14871;52.702;5.230;2023-06-19T11:00:26;18.50;;;15.07;;
27412;SDS011;14871;52.702;5.230;2023-06-19T11:02:57;19.95;;;15.40;;
27412;SDS011;14871;52.702;5.230;2023-06-19T11:05:24;18.25;;;14.68;;
27412;SDS011;14871;52.702;5.230;2023-06-19T11:07:54;20.90;;;14.48;;
27412;SDS011;14871;52.702;5.230;2023-06-19T11:10:23;16.50;;;13.18;;
27412;SDS011;14871;52.702;5.230;2023-06-19T11:12:52;17.05;;;14.25;;
27412;SDS011;14871;52.702;5.230;2023-06-19T11:15:19;17.20;;;14.05;;
27412;SDS011;14871;52.702;5.230;2023-06-19T11:17:45;18.10;;;14.75;;
27412;SDS011;14871;52.702;5.230;2023-06-19T11:20:12;20.63;;;15.18;;
27412;SDS011;14871;52.702;5.230;2023-06-19T11:22:39;19.05;;;14.10;;
27412;SDS011;14871;52.702;5.230;2023-06-19T11:25:06;17.33;;;14.02;;
27412;SDS011;14871;52.702;5.230;2023-06-19T11:27:33;16.45;;;14.15;;
27412;SDS011;14871;52.702;5.230;2023-06-19T11:30:01;19.90;;;15.00;;
27412;SDS011;14871;52.702;5.230;2023-06-19T11:32:30;16.45;;;13.60;;
27412;SDS011;14871;52.702;5.230;2023-06-19T11:34:57;15.73;;;13.40;;
27412;SDS011;14871;52.702;5.230;2023-06-19T11:37:29;19.45;;;14.07;;
27412;SDS011;14871;52.702;5.230;2023-06-19T11:39:54;18.88;;;14.45;;
27412;SDS011;14871;52.702;5.230;2023-06-19T11:42:22;21.77;;;14.93;;
27412;SDS011;14871;52.702;5.230;2023-06-19T11:44:56;15.40;;;13.63;;
27412;SDS011;14871;52.702;5.230;2023-06-19T11:47:29;17.52;;;12.82;;
27412;SDS011;14871;52.702;5.230;2023-06-19T11:49:56;16.58;;;13.70;;
27412;SDS011;14871;52.702;5.230;2023-06-19T11:52:22;15.65;;;13.30;;
27412;SDS011;14871;52.702;5.230;2023-06-19T11:54:47;16.25;;;13.60;;
27412;SDS011;14871;52.702;5.230;2023-06-19T11:57:13;17.75;;;13.80;;
27412;SDS011;14871;52.702;5.230;2023-06-19T11:59:39;16.38;;;12.98;;
27412;SDS011;14871;52.702;5.230;2023-06-19T12:02:05;15.05;;;13.55;;
27412;SDS011;14871;52.702;5.230;2023-06-19T12:04:31;15.07;;;12.73;;
27412;SDS011;14871;52.702;5.230;2023-06-19T12:06:57;16.95;;;13.15;;
27412;SDS011;14871;52.702;5.230;2023-06-19T12:09:23;18.80;;;12.50;;
27412;SDS011;14871;52.702;5.230;2023-06-19T12:11:49;16.52;;;12.60;;
27412;SDS011;14871;52.702;5.230;2023-06-19T12:14:15;16.85;;;13.93;;
27412;SDS011;14871;52.702;5.230;2023-06-19T12:16:40;15.73;;;12.45;;
27412;SDS011;14871;52.702;5.230;2023-06-19T12:19:06;13.77;;;11.00;;
27412;SDS011;14871;52.702;5.230;2023-06-19T12:21:32;15.80;;;13.23;;
27412;SDS011;14871;52.702;5.230;2023-06-19T12:23:57;13.60;;;10.60;;
27412;SDS011;14871;52.702;5.230;2023-06-19T12:26:23;17.15;;;12.63;;
27412;SDS011;14871;52.702;5.230;2023-06-19T12:28:51;13.80;;;11.48;;
27412;SDS011;14871;52.702;5.230;2023-06-19T12:31:17;15.27;;;11.50;;
27412;SDS011;14871;52.702;5.230;2023-06-19T12:33:43;13.45;;;9.32;;
27412;SDS011;14871;52.702;5.230;2023-06-19T12:36:12;16.95;;;9.48;;
27412;SDS011;14871;52.702;5.230;2023-06-19T12:38:39;16.05;;;11.38;;
27412;SDS011;14871;52.702;5.230;2023-06-19T12:41:05;12.73;;;9.77;;
27412;SDS011;14871;52.702;5.230;2023-06-19T12:43:32;10.73;;;9.50;;
27412;SDS011;14871;52.702;5.230;2023-06-19T12:45:58;14.13;;;10.32;;
27412;SDS011;14871;52.702;5.230;2023-06-19T12:48:26;12.25;;;10.23;;
27412;SDS011;14871;52.702;5.230;2023-06-19T12:50:52;14.70;;;9.52;;
27412;SDS011;14871;52.702;5.230;2023-06-19T12:53:18;9.45;;;7.90;;
27412;SDS011;14871;52.702;5.230;2023-06-19T12:55:44;11.23;;;8.68;;
27412;SDS011;14871;52.702;5.230;2023-06-19T12:58:10;12.90;;;9.60;;
27412;SDS011;14871;52.702;5.230;2023-06-19T13:00:36;10.18;;;8.25;;
27412;SDS011;14871;52.702;5.230;2023-06-19T13:03:02;16.92;;;9.32;;
27412;SDS011;14871;52.702;5.230;2023-06-19T13:05:28;11.25;;;8.25;;
27412;SDS011;14871;52.702;5.230;2023-06-19T13:07:54;12.63;;;7.63;;
27412;SDS011;14871;52.702;5.230;2023-06-19T13:10:19;16.55;;;8.45;;
27412;SDS011;14871;52.702;5.230;2023-06-19T13:12:45;10.70;;;7.82;;
27412;SDS011;14871;52.702;5.230;2023-06-19T13:15:11;9.63;;;7.82;;
27412;SDS011;14871;52.702;5.230;2023-06-19T13:17:37;10.95;;;8.00;;
27412;SDS011;14871;52.702;5.230;2023-06-19T13:20:02;11.65;;;7.05;;
27412;SDS011;14871;52.702;5.230;2023-06-19T13:22:30;9.77;;;7.38;;
27412;SDS011;14871;52.702;5.230;2023-06-19T13:24:56;13.05;;;7.65;;
27412;SDS011;14871;52.702;5.230;2023-06-19T13:27:21;15.70;;;7.13;;
27412;SDS011;14871;52.702;5.230;2023-06-19T13:29:47;9.00;;;6.65;;
27412;SDS011;14871;52.702;5.230;2023-06-19T13:32:13;9.93;;;7.63;;
27412;SDS011;14871;52.702;5.230;2023-06-19T13:34:38;8.63;;;6.60;;
27412;SDS011;14871;52.702;5.230;2023-06-19T13:37:04;9.77;;;7.28;;
27412;SDS011;14871;52.702;5.230;2023-06-19T13:39:30;9.02;;;6.93;;
27412;SDS011;14871;52.702;5.230;2023-06-19T13:41:55;8.15;;;6.35;;
27412;SDS011;14871;52.702;5.230;2023-06-19T13:44:21;7.68;;;6.28;;
27412;SDS011;14871;52.702;5.230;2023-06-19T13:46:47;9.52;;;6.85;;
27412;SDS011;14871;52.702;5.230;2023-06-19T13:49:12;9.63;;;6.13;;
27412;SDS011;14871;52.702;5.230;2023-06-19T13:51:38;8.35;;;6.07;;
27412;SDS011;14871;52.702;5.230;2023-06-19T13:54:04;7.85;;;5.82;;
27412;SDS011;14871;52.702;5.230;2023-06-19T13:56:30;7.90;;;6.38;;
27412;SDS011;14871;52.702;5.230;2023-06-19T13:58:57;6.70;;;6.00;;
27412;SDS011;14871;52.702;5.230;2023-06-19T14:01:23;8.07;;;5.70;;
27412;SDS011;14871;52.702;5.230;2023-06-19T14:03:50;8.10;;;6.18;;
27412;SDS011;14871;52.702;5.230;2023-06-19T14:06:16;8.60;;;5.97;;
27412;SDS011;14871;52.702;5.230;2023-06-19T14:08:42;8.38;;;6.18;;
27412;SDS011;14871;52.702;5.230;2023-06-19T14:11:08;8.73;;;5.60;;
27412;SDS011;14871;52.702;5.230;2023-06-19T14:13:34;11.00;;;6.05;;
27412;SDS011;14871;52.702;5.230;2023-06-19T14:16:00;8.02;;;6.00;;
27412;SDS011;14871;52.702;5.230;2023-06-19T14:18:26;7.03;;;5.28;;
27412;SDS011;14871;52.702;5.230;2023-06-19T14:20:52;6.95;;;5.10;;
27412;SDS011;14871;52.702;5.230;2023-06-19T14:23:17;7.68;;;6.03;;
27412;SDS011;14871;52.702;5.230;2023-06-19T14:25:43;6.25;;;5.45;;
27412;SDS011;14871;52.702;5.230;2023-06-19T14:28:09;6.43;;;5.18;;
27412;SDS011;14871;52.702;5.230;2023-06-19T14:30:34;7.00;;;4.88;;